Time;durP1;ratioP1;P1;durP2;ratioP2;P2;SDS_P1;SDS_P2;PMS_P1;PMS_P2;Temp;Humidity;BMP_temperature;BMP_pressure;BME280_temperature;BME280_humidity;BME280_pressure;Samples;Min_cycle;Max_cycle;Signal;HPM_P1;HPM_P2
2023/05/26 00:05:02;;;;;;;34.38;22.27;;;;;;;;;;6313782;22;20013;-96
2023/05/26 00:27:39;;;;;;;34.17;22.75;;;;;;;;;;6347869;22;19999;-96
2023/05/26 00:46:15;;;;;;;38.20;24.15;;;;;;;;;;6360880;22;20001;-96
2023/05/26 00:49:10;;;;;;;36.80;24.50;;;;;;;;;;6331919;22;20007;-96
2023/05/26 00:52:30;;;;;;;37.78;23.58;;;;;;;;;;6357781;22;20014;-96
2023/05/26 01:00:40;;;;;;;39.58;24.25;;;;;;;;;;6296949;22;22011;-95
2023/05/26 01:03:11;;;;;;;41.72;25.63;;;;;;;;;;6306912;22;20010;-96
2023/05/26 01:35:57;;;;;;;39.25;24.33;;;;;;;;;;6324753;22;19940;-92
2023/05/26 02:17:54;;;;;;;42.65;25.92;;;;;;;;;;6302766;22;20027;-93
2023/05/26 03:14:15;;;;;;;36.15;21.63;;;;;;;;;;6315745;22;20078;31
2023/05/26 03:33:23;;;;;;;34.30;22.33;;;;;;;;;;6314536;22;21037;31
2023/05/26 04:00:35;;;;;;;29.75;20.05;;;;;;;;;;6325859;22;20038;-94
2023/05/26 04:27:10;;;;;;;19.55;17.50;;;;;;;;;;6355883;22;20003;-94
2023/05/26 04:41:35;;;;;;;18.05;15.57;;;;;;;;;;6356401;22;20038;-94
2023/05/26 04:44:11;;;;;;;19.20;17.23;;;;;;;;;;6347600;22;20014;-94
2023/05/26 04:46:45;;;;;;;16.35;14.70;;;;;;;;;;6341520;22;19998;-93
2023/05/26 04:49:34;;;;;;;18.48;16.63;;;;;;;;;;6340378;22;20013;-94
2023/05/26 04:52:01;;;;;;;17.60;15.70;;;;;;;;;;6341367;22;20064;-92
2023/05/26 04:54:30;;;;;;;15.82;14.20;;;;;;;;;;6341350;22;20078;-96
2023/05/26 04:57:15;;;;;;;17.55;14.30;;;;;;;;;;6345489;22;20428;-96
2023/05/26 04:59:43;;;;;;;17.00;15.23;;;;;;;;;;6341549;22;19999;-95
2023/05/26 05:02:13;;;;;;;18.30;16.40;;;;;;;;;;6345120;22;20003;-93
2023/05/26 05:04:43;;;;;;;17.13;15.23;;;;;;;;;;6341074;22;20061;-94
2023/05/26 05:07:12;;;;;;;18.25;16.02;;;;;;;;;;6319078;22;20011;-93
2023/05/26 05:09:38;;;;;;;16.30;14.55;;;;;;;;;;6346108;22;20415;-95
2023/05/26 05:15:05;;;;;;;15.60;13.93;;;;;;;;;;6347302;22;20083;-96
2023/05/26 05:20:35;;;;;;;;;;;;;;;;;;6324808;22;20049;-94
2023/05/26 05:23:22;;;;;;;13.77;12.27;;;;;;;;;;6314812;22;19930;-96
2023/05/26 05:25:49;;;;;;;17.67;15.77;;;;;;;;;;6316823;22;20340;-94
2023/05/26 05:28:49;;;;;;;17.23;13.50;;;;;;;;;;6325912;22;20054;-96
2023/05/26 05:34:56;;;;;;;;;;;;;;;;;;;;;
2023/05/26 05:37:36;;;;;;;14.33;12.83;;;;;;;;;;6215217;23;20075;-95
2023/05/26 05:40:11;;;;;;;13.32;11.77;;;;;;;;;;6215770;23;20004;-96
2023/05/26 05:46:20;;;;;;;15.43;13.55;;;;;;;;;;6188403;23;20065;-95
2023/05/26 05:51:50;;;;;;;15.90;13.82;;;;;;;;;;6185414;23;20095;-95
2023/05/26 06:12:32;;;;;;;15.75;11.45;;;;;;;;;;6340887;22;20108;-95
2023/05/26 06:46:12;;;;;;;11.60;9.10;;;;;;;;;;6319520;22;20085;-96
2023/05/26 06:55:05;;;;;;;10.07;7.68;;;;;;;;;;6359677;22;20036;-94
2023/05/26 06:58:18;;;;;;;9.55;8.05;;;;;;;;;;6329073;22;20039;-96
2023/05/26 09:02:45;;;;;;;10.77;7.18;;;;;;;;;;6166291;23;20012;-94
2023/05/26 09:26:44;;;;;;;9.45;7.20;;;;;;;;;;6203053;23;20116;-95
2023/05/26 10:02:11;;;;;;;10.10;7.68;;;;;;;;;;6324477;22;20053;-95
2023/05/26 10:50:00;;;;;;;9.15;6.80;;;;;;;;;;6276107;22;21224;-93
2023/05/26 10:52:44;;;;;;;8.32;6.20;;;;;;;;;;6307254;22;20015;-93
2023/05/26 10:55:28;;;;;;;8.80;5.85;;;;;;;;;;6307403;22;20003;-92
2023/05/26 11:04:14;;;;;;;8.40;6.18;;;;;;;;;;6277730;22;20464;-94
2023/05/26 11:13:05;;;;;;;9.37;6.13;;;;;;;;;;6155184;23;20075;-95
2023/05/26 11:19:10;;;;;;;8.70;5.70;;;;;;;;;;6160225;22;20019;-94
2023/05/26 11:21:36;;;;;;;;;;;;;;;;;;6308582;22;20006;-93
2023/05/26 11:24:03;;;;;;;13.63;5.95;;;;;;;;;;6307173;22;19899;-92
2023/05/26 11:26:42;;;;;;;7.25;5.35;;;;;;;;;;6308597;22;20003;-93
2023/05/26 11:29:11;;;;;;;10.02;5.50;;;;;;;;;;6310527;22;20314;-94
2023/05/26 11:31:48;;;;;;;7.68;5.25;;;;;;;;;;6307412;22;20018;-93
2023/05/26 11:34:30;;;;;;;8.90;6.03;;;;;;;;;;6306963;22;20011;-94
2023/05/26 11:36:58;;;;;;;10.20;5.38;;;;;;;;;;6307423;22;20010;-94
2023/05/26 11:39:35;;;;;;;7.47;5.07;;;;;;;;;;6309878;22;20443;-93
2023/05/26 11:42:11;;;;;;;10.00;5.85;;;;;;;;;;6306741;22;19999;-91
2023/05/26 11:44:46;;;;;;;9.75;6.00;;;;;;;;;;6281297;22;20007;-94
2023/05/26 11:47:26;;;;;;;7.03;5.05;;;;;;;;;;6307597;22;20077;-92
2023/05/26 11:49:52;;;;;;;7.05;4.97;;;;;;;;;;6295246;22;20113;-92
2023/05/26 11:52:28;;;;;;;7.13;5.05;;;;;;;;;;6306773;22;20022;-95
2023/05/26 12:04:07;;;;;;;7.50;5.40;;;;;;;;;;6307277;22;20080;-94
2023/05/26 12:06:38;;;;;;;10.10;5.38;;;;;;;;;;6281129;22;20305;-93
2023/05/26 12:09:10;;;;;;;11.80;5.13;;;;;;;;;;6280345;22;19999;-92
2023/05/26 12:11:42;;;;;;;7.80;5.47;;;;;;;;;;6280213;22;20446;-95
2023/05/26 12:14:13;;;;;;;9.02;5.22;;;;;;;;;;6280015;22;20010;-94
2023/05/26 12:16:41;;;;;;;6.80;5.43;;;;;;;;;;6279783;22;20015;-95
2023/05/26 12:19:10;;;;;;;7.05;5.47;;;;;;;;;;6280104;22;20003;-94
2023/05/26 12:21:40;;;;;;;7.20;4.53;;;;;;;;;;6279995;22;20013;-94
2023/05/26 12:24:09;;;;;;;8.65;5.10;;;;;;;;;;6306165;22;20037;-94
2023/05/26 12:26:39;;;;;;;11.88;5.93;;;;;;;;;;6301377;22;20007;-96
2023/05/26 12:29:10;;;;;;;11.77;5.18;;;;;;;;;;6310303;22;20003;-95
2023/05/26 12:31:40;;;;;;;7.88;5.70;;;;;;;;;;6308622;22;20015;-95
2023/05/26 12:34:06;;;;;;;10.23;5.10;;;;;;;;;;6308664;22;20433;-93
2023/05/26 12:36:36;;;;;;;9.50;5.32;;;;;;;;;;6309132;22;20064;-95
2023/05/26 12:39:03;;;;;;;9.48;4.93;;;;;;;;;;6308646;22;20027;-92
2023/05/26 12:41:29;;;;;;;6.93;5.40;;;;;;;;;;6308556;22;20371;-93
2023/05/26 12:43:55;;;;;;;10.38;5.13;;;;;;;;;;6308649;22;20287;-92
2023/05/26 12:46:21;;;;;;;7.40;5.00;;;;;;;;;;6309327;22;20003;-95
2023/05/26 12:48:47;;;;;;;8.82;5.32;;;;;;;;;;6308431;22;20004;-92
2023/05/26 12:51:16;;;;;;;7.63;5.28;;;;;;;;;;6307792;22;20016;-94
2023/05/26 12:53:43;;;;;;;9.68;5.05;;;;;;;;;;6308829;22;20038;-93
2023/05/26 12:56:11;;;;;;;8.88;5.18;;;;;;;;;;6308375;22;20003;-96
2023/05/26 12:58:40;;;;;;;8.52;5.15;;;;;;;;;;6308781;22;20085;-95
2023/05/26 13:01:06;;;;;;;10.25;5.60;;;;;;;;;;6308316;22;20433;-94
2023/05/26 13:03:33;;;;;;;9.18;4.85;;;;;;;;;;6309083;22;20022;-93
2023/05/26 13:06:12;;;;;;;10.80;5.25;;;;;;;;;;6308938;22;20065;-92
2023/05/26 13:08:38;;;;;;;12.45;5.05;;;;;;;;;;6308678;22;20082;-96
2023/05/26 13:11:05;;;;;;;9.63;5.20;;;;;;;;;;6308327;22;20023;-93
2023/05/26 13:13:31;;;;;;;9.07;5.07;;;;;;;;;;6308294;22;20030;-93
2023/05/26 13:15:57;;;;;;;8.40;5.00;;;;;;;;;;6307981;22;19999;-94
2023/05/26 13:18:23;;;;;;;6.75;5.05;;;;;;;;;;6308773;22;20083;-93
2023/05/26 13:20:49;;;;;;;8.25;5.20;;;;;;;;;;6309092;22;20004;-94
2023/05/26 13:23:16;;;;;;;9.43;5.47;;;;;;;;;;6310103;22;20003;-94
2023/05/26 13:25:42;;;;;;;7.60;5.22;;;;;;;;;;6308065;22;19999;-94
2023/05/26 13:28:08;;;;;;;8.77;5.15;;;;;;;;;;6308107;22;20014;-93
2023/05/26 13:30:34;;;;;;;6.43;4.78;;;;;;;;;;6308078;22;20405;-94
2023/05/26 13:33:07;;;;;;;8.20;5.25;;;;;;;;;;6307810;22;20050;-94
2023/05/26 13:35:33;;;;;;;10.70;5.30;;;;;;;;;;6308907;22;20067;-94
2023/05/26 13:37:59;;;;;;;7.15;5.22;;;;;;;;;;6307950;22;20007;-93
2023/05/26 13:40:26;;;;;;;6.85;5.18;;;;;;;;;;6308270;22;20023;-94
2023/05/26 13:42:52;;;;;;;8.13;4.93;;;;;;;;;;6308424;22;20003;-92
2023/05/26 13:45:21;;;;;;;8.38;5.45;;;;;;;;;;6308844;22;20006;-95
2023/05/26 13:47:50;;;;;;;9.20;5.30;;;;;;;;;;6309436;22;20007;-95
2023/05/26 13:50:16;;;;;;;8.63;4.95;;;;;;;;;;6282618;22;20003;-95
2023/05/26 13:52:49;;;;;;;9.23;5.78;;;;;;;;;;6308061;22;20026;-93
2023/05/26 13:55:15;;;;;;;12.25;5.28;;;;;;;;;;6310774;22;19999;-95
2023/05/26 13:57:42;;;;;;;12.32;5.80;;;;;;;;;;6309290;22;20010;-94
2023/05/26 14:00:08;;;;;;;11.55;5.57;;;;;;;;;;6308684;22;20004;-93
2023/05/26 14:02:35;;;;;;;10.00;5.45;;;;;;;;;;6308048;22;20010;-93
2023/05/26 14:05:01;;;;;;;8.85;5.35;;;;;;;;;;6307817;22;20003;-94
2023/05/26 14:07:27;;;;;;;9.27;5.03;;;;;;;;;;6307927;22;20432;-94
2023/05/26 14:09:53;;;;;;;8.07;5.40;;;;;;;;;;6307669;22;19999;-93
2023/05/26 14:12:20;;;;;;;8.23;5.30;;;;;;;;;;6307980;22;20334;-94
2023/05/26 14:14:46;;;;;;;8.60;5.85;;;;;;;;;;6307969;22;20424;-94
2023/05/26 14:17:12;;;;;;;7.97;5.57;;;;;;;;;;6307625;22;20086;-94
2023/05/26 14:19:38;;;;;;;8.13;5.93;;;;;;;;;;6307954;22;20090;-94
2023/05/26 14:22:04;;;;;;;8.30;5.95;;;;;;;;;;6313655;22;20004;-93
2023/05/26 14:24:33;;;;;;;10.20;5.60;;;;;;;;;;6318959;22;20098;-93
2023/05/26 14:26:59;;;;;;;7.43;5.57;;;;;;;;;;6308260;22;20007;-94
2023/05/26 14:29:27;;;;;;;10.85;5.93;;;;;;;;;;6307748;22;19999;-93
2023/05/26 14:31:53;;;;;;;7.28;5.78;;;;;;;;;;6308210;22;20011;-92
2023/05/26 14:34:19;;;;;;;8.45;5.90;;;;;;;;;;6307592;22;20018;-92
2023/05/26 14:36:45;;;;;;;9.80;5.82;;;;;;;;;;6308207;22;20049;-93
2023/05/26 14:39:15;;;;;;;9.23;6.30;;;;;;;;;;6307543;22;20003;-93
2023/05/26 14:41:41;;;;;;;13.35;6.80;;;;;;;;;;6307712;22;20321;-93
2023/05/26 14:44:07;;;;;;;10.52;6.00;;;;;;;;;;6307292;22;20003;-94
2023/05/26 14:46:35;;;;;;;9.57;5.93;;;;;;;;;;6308872;22;20003;-94
2023/05/26 14:49:02;;;;;;;10.35;5.97;;;;;;;;;;6307215;22;20003;-93
2023/05/26 14:51:29;;;;;;;10.02;6.35;;;;;;;;;;6307822;22;20023;-93
2023/05/26 14:54:14;;;;;;;8.52;5.85;;;;;;;;;;6308451;22;20026;-96
2023/05/26 14:56:43;;;;;;;9.93;5.88;;;;;;;;;;6295213;22;20090;-93
2023/05/26 14:59:10;;;;;;;10.82;6.63;;;;;;;;;;6307891;22;20007;-92
2023/05/26 15:01:42;;;;;;;10.02;6.43;;;;;;;;;;6306839;22;20022;-95
2023/05/26 15:04:21;;;;;;;11.82;6.55;;;;;;;;;;6308096;22;20085;-94
2023/05/26 15:10:04;;;;;;;13.07;6.80;;;;;;;;;;6310356;22;20007;-93
2023/05/26 15:12:31;;;;;;;11.65;7.00;;;;;;;;;;6312330;22;20011;-94
2023/05/26 15:15:37;;;;;;;;;;;;;;;;;;;;;
2023/05/26 15:18:12;;;;;;;8.90;6.38;;;;;;;;;;6310356;22;20086;-95
2023/05/26 15:20:39;;;;;;;9.30;6.55;;;;;;;;;;6308101;22;20026;-94
2023/05/26 15:23:12;;;;;;;7.43;6.63;;;;;;;;;;6307285;22;19995;-94
2023/05/26 15:25:53;;;;;;;9.50;6.47;;;;;;;;;;6313633;22;20004;-94
2023/05/26 15:28:50;;;;;;;9.98;6.57;;;;;;;;;;6281403;22;20028;-92
2023/05/26 15:31:46;;;;;;;9.50;5.97;;;;;;;;;;6307087;22;20497;-91
2023/05/26 15:34:38;;;;;;;8.57;6.43;;;;;;;;;;6262779;22;19999;-93
2023/05/26 15:37:27;;;;;;;8.38;6.18;;;;;;;;;;6184457;23;20346;-92
2023/05/26 15:39:53;;;;;;;7.90;6.00;;;;;;;;;;6184369;23;20043;-94
2023/05/26 15:42:25;;;;;;;9.43;6.60;;;;;;;;;;6184624;23;20065;-93
2023/05/26 15:45:00;;;;;;;10.02;6.65;;;;;;;;;;6184181;23;20005;-93
2023/05/26 15:48:17;;;;;;;;;;;;;;;;;;;;;
2023/05/26 15:50:59;;;;;;;16.67;6.70;;;;;;;;;;6299357;22;20065;-92
2023/05/26 15:56:50;;;;;;;8.63;6.63;;;;;;;;;;6184527;23;20017;-93
2023/05/26 15:59:16;;;;;;;10.45;7.20;;;;;;;;;;6156280;22;20011;-93
2023/05/26 16:01:48;;;;;;;9.38;6.97;;;;;;;;;;6252961;22;20030;-95
2023/05/26 16:04:14;;;;;;;11.75;6.97;;;;;;;;;;6252673;22;20003;-93
2023/05/26 16:06:41;;;;;;;8.13;6.53;;;;;;;;;;6252762;22;20042;-95
2023/05/26 16:09:07;;;;;;;8.70;6.57;;;;;;;;;;6252834;22;20010;-94
2023/05/26 16:11:53;;;;;;;10.23;6.82;;;;;;;;;;6252576;22;20015;-93
2023/05/26 16:14:20;;;;;;;12.90;6.85;;;;;;;;;;6253012;22;20004;-93
2023/05/26 16:16:46;;;;;;;8.45;6.20;;;;;;;;;;6252378;22;20447;-93
2023/05/26 16:19:28;;;;;;;;;;;;;;;;;;;;;
2023/05/26 16:22:03;;;;;;;10.65;6.30;;;;;;;;;;6279468;22;20084;-93
2023/05/26 16:24:29;;;;;;;8.43;6.38;;;;;;;;;;6254425;22;20031;-93
2023/05/26 16:27:06;;;;;;;10.32;6.50;;;;;;;;;;6254462;22;20007;-95
2023/05/26 16:29:36;;;;;;;10.38;6.78;;;;;;;;;;6253285;22;20019;-92
2023/05/26 16:32:03;;;;;;;9.55;6.88;;;;;;;;;;6252469;22;20018;-94
2023/05/26 16:34:29;;;;;;;9.85;6.55;;;;;;;;;;6253619;22;20010;-92
2023/05/26 16:37:02;;;;;;;11.07;6.55;;;;;;;;;;6251778;22;20302;-94
2023/05/26 16:39:28;;;;;;;8.98;6.20;;;;;;;;;;6252469;22;20004;-93
2023/05/26 16:41:57;;;;;;;10.45;6.47;;;;;;;;;;6252624;22;20422;-93
2023/05/26 16:44:23;;;;;;;8.25;6.40;;;;;;;;;;6252373;22;20003;-92
2023/05/26 16:46:49;;;;;;;12.70;7.43;;;;;;;;;;6252464;22;20075;-92
2023/05/26 16:49:15;;;;;;;10.23;7.00;;;;;;;;;;6253253;22;20360;-91
2023/05/26 16:51:44;;;;;;;100.82;21.27;;;;;;;;;;6277709;22;20011;-92
2023/05/26 16:54:10;;;;;;;10.73;7.28;;;;;;;;;;6252283;22;20004;-95
2023/05/26 16:57:04;;;;;;;8.82;6.25;;;;;;;;;;6253642;22;20063;-92
2023/05/26 16:59:36;;;;;;;11.15;6.35;;;;;;;;;;6310528;22;20015;-92
2023/05/26 17:02:02;;;;;;;10.98;6.82;;;;;;;;;;6308516;22;20086;-93
2023/05/26 17:04:28;;;;;;;10.32;6.72;;;;;;;;;;6309849;22;20003;-92
2023/05/26 17:06:54;;;;;;;9.60;6.35;;;;;;;;;;6284327;22;20082;-93
2023/05/26 17:09:20;;;;;;;9.05;7.20;;;;;;;;;;6309380;22;20056;-92
2023/05/26 17:11:54;;;;;;;8.68;6.47;;;;;;;;;;6308307;22;20523;-91
2023/05/26 17:14:21;;;;;;;10.02;6.95;;;;;;;;;;6310049;22;19999;-95
2023/05/26 17:16:48;;;;;;;14.90;6.93;;;;;;;;;;6322650;22;20118;-90
2023/05/26 17:19:21;;;;;;;11.48;7.63;;;;;;;;;;6325157;22;20011;-90
2023/05/26 17:22:34;;;;;;;10.05;7.18;;;;;;;;;;6229857;23;20010;-93
2023/05/26 17:51:36;;;;;;;11.18;7.25;;;;;;;;;;6242651;22;20033;-94
2023/05/26 17:57:16;;;;;;;11.85;8.13;;;;;;;;;;6336480;22;20034;-95
2023/05/26 17:59:48;;;;;;;10.05;7.85;;;;;;;;;;6318407;22;20009;-93
2023/05/26 18:02:19;;;;;;;11.50;8.40;;;;;;;;;;6313729;22;20003;-94
2023/05/26 18:04:48;;;;;;;12.48;9.30;;;;;;;;;;6313376;22;20010;-95
2023/05/26 18:07:14;;;;;;;14.48;8.88;;;;;;;;;;6313035;22;20443;-92
2023/05/26 18:09:40;;;;;;;12.77;9.05;;;;;;;;;;6314457;22;20007;-94
2023/05/26 18:15:14;;;;;;;12.48;8.25;;;;;;;;;;6360576;22;20017;-92
2023/05/26 18:30:14;;;;;;;12.00;8.65;;;;;;;;;;6323560;22;20046;31
2023/05/26 18:33:24;;;;;;;13.35;9.35;;;;;;;;;;6317270;22;20098;-92
2023/05/26 18:53:31;;;;;;;16.60;8.88;;;;;;;;;;6333048;22;20059;-92
2023/05/26 19:09:33;;;;;;;13.68;8.55;;;;;;;;;;6331891;22;20034;-90
2023/05/26 20:05:53;;;;;;;11.77;7.40;;;;;;;;;;6344124;22;20053;-96
2023/05/26 20:08:19;;;;;;;15.77;9.25;;;;;;;;;;6315831;22;20006;-94
2023/05/26 20:10:49;;;;;;;12.88;7.68;;;;;;;;;;6315550;22;19999;-94
2023/05/26 20:13:34;;;;;;;14.23;8.95;;;;;;;;;;6315620;22;20015;-95
2023/05/26 20:16:19;;;;;;;13.90;8.35;;;;;;;;;;6320348;22;20366;-93
2023/05/26 20:52:27;;;;;;;15.52;8.00;;;;;;;;;;6341565;22;20010;-89
2023/05/26 22:08:42;;;;;;;13.98;6.80;;;;;;;;;;6294095;22;20033;31
